Time;durP1;ratioP1;P1;durP2;ratioP2;P2;SDS_P1;SDS_P2;PMS_P1;PMS_P2;Temp;Humidity;BMP_temperature;BMP_pressure;BME280_temperature;BME280_humidity;BME280_pressure;Samples;Min_cycle;Max_cycle;Signal;HPM_P1;HPM_P2
2023/04/14 00:01:24;;;;;;;0.10;0.10;;;5.90;99.90;;;;;;4975500;28;20031;-77
2023/04/14 00:03:50;;;;;;;0.30;0.20;;;5.90;99.90;;;;;;4975241;28;20474;-78
2023/04/14 00:06:16;;;;;;;2.88;0.30;;;5.90;99.90;;;;;;4975042;28;20022;-77
2023/04/14 00:08:42;;;;;;;0.40;0.30;;;6.00;99.90;;;;;;4975040;28;20517;-78
2023/04/14 00:11:07;;;;;;;0.20;0.20;;;6.10;99.90;;;;;;4975368;28;20398;-78
2023/04/14 00:13:34;;;;;;;0.73;0.10;;;6.00;99.90;;;;;;4975417;28;20030;-77
2023/04/14 00:16:00;;;;;;;0.10;0.10;;;6.00;99.90;;;;;;4976264;28;20111;-78
2023/04/14 00:18:25;;;;;;;0.28;0.22;;;6.10;99.90;;;;;;4974783;28;20092;-78
2023/04/14 00:20:53;;;;;;;0.70;0.40;;;6.00;99.90;;;;;;4975083;28;20031;-77
2023/04/14 00:23:19;;;;;;;0.15;0.15;;;6.00;99.90;;;;;;4973270;28;20041;-77
2023/04/14 00:25:45;;;;;;;0.25;0.15;;;6.00;99.90;;;;;;4976141;28;20538;-77
2023/04/14 00:28:10;;;;;;;1.55;0.20;;;6.00;99.90;;;;;;4974714;28;20118;-78
2023/04/14 00:30:36;;;;;;;0.15;0.15;;;6.00;99.90;;;;;;4974885;28;20112;-78
2023/04/14 00:33:01;;;;;;;0.30;0.30;;;5.90;99.90;;;;;;4975581;28;20059;-78
2023/04/14 00:35:27;;;;;;;0.10;0.10;;;5.90;99.90;;;;;;4974489;28;20023;-78
2023/04/14 00:37:55;;;;;;;0.10;0.10;;;5.90;99.90;;;;;;4974525;28;20026;-77
2023/04/14 00:40:21;;;;;;;0.43;0.10;;;5.90;99.90;;;;;;4974907;28;20510;-78
2023/04/14 00:42:46;;;;;;;0.85;0.30;;;5.90;99.90;;;;;;4975893;28;20031;-78
2023/04/14 00:45:13;;;;;;;0.20;0.20;;;5.80;99.90;;;;;;4974814;28;20388;-78
2023/04/14 00:47:41;;;;;;;0.13;0.10;;;5.80;99.90;;;;;;4974525;28;20027;-77
2023/04/14 00:50:10;;;;;;;0.43;0.10;;;5.70;99.90;;;;;;4975116;28;20022;-77
2023/04/14 00:52:37;;;;;;;0.10;0.10;;;5.60;99.90;;;;;;4974942;28;20023;-77
2023/04/14 00:55:04;;;;;;;0.65;0.15;;;5.60;99.90;;;;;;4975689;28;20394;-77
2023/04/14 00:57:30;;;;;;;0.20;0.20;;;5.60;99.90;;;;;;4974349;28;20051;-77
2023/04/14 00:59:59;;;;;;;0.10;0.10;;;5.50;99.90;;;;;;4974871;28;20070;-78
2023/04/14 01:02:25;;;;;;;2.40;0.10;;;5.60;99.90;;;;;;4976307;28;20058;-78
2023/04/14 01:04:51;;;;;;;0.13;0.13;;;5.50;99.90;;;;;;4975536;28;20066;-78
2023/04/14 01:07:21;;;;;;;0.10;0.10;;;5.50;99.90;;;;;;4975440;28;20026;-78
2023/04/14 01:09:47;;;;;;;0.08;0.05;;;5.50;99.90;;;;;;4984349;28;20023;-79
2023/04/14 01:12:16;;;;;;;0.10;0.10;;;5.50;99.90;;;;;;4985774;28;20120;-79
2023/04/14 01:14:48;;;;;;;1.50;0.20;;;5.50;99.90;;;;;;4986845;28;20031;-79
2023/04/14 01:17:31;;;;;;;0.08;0.08;;;5.40;99.90;;;;;;4991107;28;20027;-77
2023/04/14 01:20:10;;;;;;;0.10;0.05;;;5.50;99.90;;;;;;4978937;28;20049;-78
2023/04/14 01:22:42;;;;;;;0.08;0.05;;;5.50;99.90;;;;;;4974942;28;20035;-77
2023/04/14 01:25:26;;;;;;;0.10;0.10;;;5.50;99.90;;;;;;4975078;28;20035;-78
2023/04/14 01:28:09;;;;;;;0.25;0.10;;;5.40;99.90;;;;;;4974481;28;20030;-78
2023/04/14 01:31:04;;;;;;;0.05;0.00;;;5.40;99.90;;;;;;4975981;28;20015;-77
2023/04/14 01:33:35;;;;;;;0.00;0.00;;;5.40;99.90;;;;;;4974109;28;20023;-79
2023/04/14 01:36:05;;;;;;;0.05;0.03;;;5.40;99.90;;;;;;4973521;28;20117;-78
2023/04/14 01:38:33;;;;;;;0.30;0.20;;;5.40;99.90;;;;;;4974224;28;20538;-78
2023/04/14 01:41:06;;;;;;;1.45;0.08;;;5.40;99.90;;;;;;4973614;28;20026;-78
2023/04/14 01:43:36;;;;;;;0.65;0.20;;;5.30;99.90;;;;;;4974795;28;20022;-77
2023/04/14 01:46:08;;;;;;;0.00;0.00;;;5.40;99.90;;;;;;4973408;28;20027;-78
2023/04/14 01:48:35;;;;;;;0.10;0.10;;;5.40;99.90;;;;;;4973411;28;20031;-78
2023/04/14 01:51:02;;;;;;;0.00;0.00;;;5.30;99.90;;;;;;4973523;28;20050;-77
2023/04/14 01:53:31;;;;;;;0.00;0.00;;;5.30;99.90;;;;;;4974468;28;20023;-77
2023/04/14 01:55:57;;;;;;;0.10;0.10;;;5.30;99.90;;;;;;4972919;28;20479;-79
2023/04/14 01:58:27;;;;;;;0.15;0.03;;;5.30;99.90;;;;;;4972672;28;20038;-77
2023/04/14 02:00:54;;;;;;;0.00;0.00;;;5.40;99.90;;;;;;4973092;28;20027;-78
2023/04/14 02:03:22;;;;;;;0.20;0.10;;;5.40;99.90;;;;;;4973033;28;20055;-77
2023/04/14 02:05:50;;;;;;;0.10;0.10;;;5.40;99.90;;;;;;4972330;28;20031;-77
2023/04/14 02:08:16;;;;;;;0.80;0.20;;;5.40;99.90;;;;;;4973895;28;20018;-77
2023/04/14 02:10:45;;;;;;;0.22;0.15;;;5.30;99.90;;;;;;4972929;28;20038;-77
2023/04/14 02:13:12;;;;;;;1.15;1.02;;;5.30;99.90;;;;;;4974152;28;20442;-79
2023/04/14 02:15:39;;;;;;;0.63;0.63;;;5.30;99.90;;;;;;4973961;28;20029;-78
2023/04/14 02:18:06;;;;;;;0.85;0.28;;;5.30;99.90;;;;;;4972324;28;20483;-79
2023/04/14 02:20:32;;;;;;;0.30;0.20;;;5.30;99.90;;;;;;4972526;28;20035;-77
2023/04/14 02:22:59;;;;;;;0.03;0.03;;;5.30;99.90;;;;;;4971610;28;20038;-78
2023/04/14 02:25:31;;;;;;;0.10;0.10;;;5.30;99.90;;;;;;4973608;28;20034;-77
2023/04/14 02:28:04;;;;;;;0.10;0.10;;;5.30;99.90;;;;;;4972291;28;20089;-78
2023/04/14 02:30:43;;;;;;;0.08;0.08;;;5.30;99.90;;;;;;4972665;28;20027;-78
2023/04/14 02:33:15;;;;;;;0.17;0.10;;;5.30;99.90;;;;;;4972575;28;20117;-78
2023/04/14 02:36:01;;;;;;;0.08;0.08;;;5.30;99.90;;;;;;4973483;28;20058;-78
2023/04/14 02:38:37;;;;;;;0.00;0.00;;;5.40;99.90;;;;;;4971632;28;20031;-77
2023/04/14 02:41:08;;;;;;;0.25;0.20;;;5.30;99.90;;;;;;4973667;28;20030;-78
2023/04/14 02:43:45;;;;;;;0.10;0.10;;;5.30;99.90;;;;;;4972371;28;20042;-78
2023/04/14 02:46:15;;;;;;;0.00;0.00;;;5.30;99.90;;;;;;4972200;28;20030;-77
2023/04/14 02:48:42;;;;;;;0.20;0.10;;;5.30;99.90;;;;;;4973398;28;20094;-78
2023/04/14 02:51:10;;;;;;;0.20;0.20;;;5.30;99.90;;;;;;4973677;28;20019;-78
2023/04/14 02:53:36;;;;;;;0.28;0.10;;;5.30;99.90;;;;;;4973704;28;20023;-77
2023/04/14 02:56:03;;;;;;;0.00;0.00;;;5.20;99.90;;;;;;4973487;28;20391;-78
2023/04/14 02:58:29;;;;;;;0.55;0.10;;;5.30;99.90;;;;;;4973533;28;20059;-78
2023/04/14 03:00:57;;;;;;;0.10;0.10;;;5.30;99.90;;;;;;4972567;28;20034;-78
2023/04/14 03:03:24;;;;;;;0.38;0.20;;;5.30;99.90;;;;;;4972290;28;20031;-77
2023/04/14 03:05:50;;;;;;;0.20;0.20;;;5.40;99.90;;;;;;4971479;28;20023;-77
2023/04/14 03:08:16;;;;;;;0.03;0.03;;;5.40;99.90;;;;;;4969378;28;20027;-77
2023/04/14 03:10:45;;;;;;;0.32;0.20;;;5.40;99.90;;;;;;4953030;29;20480;-77
2023/04/14 03:13:13;;;;;;;0.20;0.20;;;5.40;99.90;;;;;;4952870;28;20027;-78
2023/04/14 03:15:40;;;;;;;0.10;0.10;;;5.40;99.90;;;;;;4952606;29;20066;-79
2023/04/14 03:18:06;;;;;;;0.20;0.20;;;5.40;99.90;;;;;;4952758;29;20404;-78
2023/04/14 03:20:33;;;;;;;0.10;0.10;;;5.40;99.90;;;;;;4954342;29;20031;-79
2023/04/14 03:23:03;;;;;;;0.80;0.20;;;5.40;99.90;;;;;;4953766;28;20037;-78
2023/04/14 03:25:36;;;;;;;0.35;0.35;;;5.40;99.90;;;;;;4954384;28;20159;-78
2023/04/14 03:28:05;;;;;;;1.45;0.63;;;5.40;99.90;;;;;;4952250;29;20114;-78
2023/04/14 03:30:33;;;;;;;2.28;0.68;;;5.40;99.90;;;;;;4952504;29;20034;-77
2023/04/14 03:33:04;;;;;;;0.10;0.10;;;5.50;99.90;;;;;;4952406;28;20030;-78
2023/04/14 03:35:31;;;;;;;0.30;0.30;;;5.50;99.90;;;;;;4953332;28;20047;-78
2023/04/14 03:37:59;;;;;;;0.32;0.32;;;5.50;99.90;;;;;;4953522;28;20484;-78
2023/04/14 03:40:30;;;;;;;0.40;0.15;;;5.50;99.90;;;;;;4953749;28;20106;-79
2023/04/14 03:42:57;;;;;;;0.55;0.52;;;5.50;99.90;;;;;;4953853;28;20027;-77
2023/04/14 03:45:25;;;;;;;1.25;0.70;;;5.50;99.90;;;;;;4952310;29;20042;-79
2023/04/14 03:47:56;;;;;;;1.23;1.13;;;5.50;99.90;;;;;;4952294;29;20459;-78
2023/04/14 03:50:26;;;;;;;2.47;1.60;;;5.50;99.90;;;;;;4953546;28;20025;-78
2023/04/14 03:52:53;;;;;;;1.90;1.20;;;5.50;99.90;;;;;;4955967;28;20373;-77
2023/04/14 03:55:21;;;;;;;0.70;0.52;;;5.50;99.90;;;;;;4955562;29;20037;-77
2023/04/14 03:57:48;;;;;;;0.40;0.30;;;5.50;99.90;;;;;;4956919;28;20395;-77
2023/04/14 04:00:14;;;;;;;0.00;0.00;;;5.40;99.90;;;;;;4956289;29;20396;-78
2023/04/14 04:02:41;;;;;;;0.00;0.00;;;5.40;99.90;;;;;;4956778;28;20019;-77
2023/04/14 04:05:08;;;;;;;0.10;0.10;;;5.40;99.90;;;;;;4956646;28;20031;-78
2023/04/14 04:07:36;;;;;;;0.08;0.00;;;5.40;99.90;;;;;;4955649;29;20500;-78
2023/04/14 04:10:04;;;;;;;0.10;0.10;;;5.40;99.90;;;;;;4956912;28;20027;-78
2023/04/14 04:12:31;;;;;;;0.00;0.00;;;5.40;99.90;;;;;;4955548;28;20572;-77
2023/04/14 04:14:56;;;;;;;0.10;0.10;;;5.40;99.90;;;;;;4956524;28;20027;-77
2023/04/14 04:17:25;;;;;;;0.10;0.10;;;5.40;99.90;;;;;;4956019;28;20444;-77
2023/04/14 04:19:53;;;;;;;0.10;0.10;;;5.40;99.90;;;;;;4955585;29;20027;-78
2023/04/14 04:22:20;;;;;;;0.25;0.20;;;5.40;99.90;;;;;;4954044;28;20124;-78
2023/04/14 04:24:47;;;;;;;0.28;0.28;;;5.40;99.90;;;;;;4956448;28;20242;-77
2023/04/14 04:27:15;;;;;;;0.65;0.40;;;5.40;99.90;;;;;;4955480;29;20031;-78
2023/04/14 04:29:41;;;;;;;0.10;0.10;;;5.40;99.90;;;;;;4955401;29;20503;-78
2023/04/14 04:32:06;;;;;;;0.20;0.20;;;5.40;99.90;;;;;;4955347;28;20500;-76
2023/04/14 04:34:33;;;;;;;0.10;0.10;;;5.40;99.90;;;;;;4956310;28;20102;-77
2023/04/14 04:37:02;;;;;;;0.40;0.30;;;5.40;99.90;;;;;;4955347;29;20027;-78
2023/04/14 04:39:29;;;;;;;0.20;0.20;;;5.40;99.90;;;;;;4956271;28;20027;-78
2023/04/14 04:42:02;;;;;;;0.55;0.30;;;5.40;99.90;;;;;;4956067;28;20783;-77
2023/04/14 04:44:28;;;;;;;0.20;0.20;;;5.40;99.90;;;;;;4955855;28;20023;-77
2023/04/14 04:46:55;;;;;;;0.10;0.10;;;5.40;99.90;;;;;;4954778;29;20034;-77
2023/04/14 04:49:21;;;;;;;2.50;2.30;;;5.50;99.90;;;;;;4955874;28;20042;-77
2023/04/14 04:51:48;;;;;;;2.08;1.45;;;5.40;99.90;;;;;;4954703;28;20023;-78
2023/04/14 04:54:14;;;;;;;1.80;1.30;;;5.40;99.90;;;;;;4954871;29;20027;-77
2023/04/14 04:56:40;;;;;;;1.83;1.17;;;5.40;99.90;;;;;;4955668;28;20416;-77
2023/04/14 04:59:06;;;;;;;2.17;0.70;;;5.40;99.90;;;;;;4954454;29;20034;-77
2023/04/14 05:01:32;;;;;;;0.57;0.57;;;5.50;99.90;;;;;;4955142;28;20059;-77
2023/04/14 05:03:57;;;;;;;1.25;1.15;;;5.50;99.90;;;;;;4955706;28;20027;-78
2023/04/14 05:06:23;;;;;;;0.57;0.57;;;5.50;99.90;;;;;;4955247;28;20463;-78
2023/04/14 05:08:53;;;;;;;0.28;0.22;;;5.50;99.90;;;;;;4954145;29;20026;-77
2023/04/14 05:11:19;;;;;;;0.15;0.15;;;5.50;99.90;;;;;;4954421;29;20030;-77
2023/04/14 05:13:45;;;;;;;0.40;0.40;;;5.50;99.90;;;;;;4954473;28;20024;-77
2023/04/14 05:16:14;;;;;;;0.25;0.25;;;5.50;99.90;;;;;;4954929;28;20023;-78
2023/04/14 05:18:41;;;;;;;0.20;0.20;;;5.50;99.90;;;;;;4955142;28;20023;-78
2023/04/14 05:21:13;;;;;;;1.60;0.40;;;5.40;99.90;;;;;;4954101;29;20559;-77
2023/04/14 05:23:42;;;;;;;0.88;0.52;;;5.40;99.90;;;;;;4954204;28;20039;-76
2023/04/14 05:26:09;;;;;;;0.88;0.88;;;5.40;99.90;;;;;;4955882;28;20019;-76
2023/04/14 05:28:35;;;;;;;6.70;1.75;;;6.20;99.90;;;;;;4970355;28;20031;-76
2023/04/14 05:31:01;;;;;;;1.63;0.98;;;6.00;99.90;;;;;;4974722;28;20029;-75
2023/04/14 05:33:27;;;;;;;0.30;0.30;;;5.80;99.90;;;;;;4974929;28;20098;-76
2023/04/14 05:35:53;;;;;;;0.35;0.32;;;5.70;99.90;;;;;;4976543;28;20027;-76
2023/04/14 05:38:19;;;;;;;0.45;0.35;;;5.70;99.90;;;;;;4972728;28;20023;-76
2023/04/14 05:40:46;;;;;;;0.17;0.17;;;5.70;99.90;;;;;;4974587;28;20054;-75
2023/04/14 05:43:13;;;;;;;2.15;1.27;;;5.70;99.90;;;;;;4974479;28;20027;-76
2023/04/14 05:45:39;;;;;;;1.15;0.60;;;5.70;99.90;;;;;;4972871;28;20022;-75
2023/04/14 05:48:05;;;;;;;0.50;0.47;;;5.70;99.90;;;;;;4974036;28;20019;-76
2023/04/14 05:50:32;;;;;;;0.32;0.25;;;5.70;99.90;;;;;;4974412;28;20018;-76
2023/04/14 05:52:58;;;;;;;0.60;0.20;;;5.70;99.90;;;;;;4973201;28;20050;-76
2023/04/14 05:55:24;;;;;;;0.93;0.77;;;5.60;99.90;;;;;;4973625;28;20061;-77
2023/04/14 05:57:51;;;;;;;0.82;0.82;;;5.60;99.90;;;;;;4973499;28;20559;-76
2023/04/14 06:00:17;;;;;;;0.63;0.30;;;5.60;99.90;;;;;;4973932;28;20034;-77
2023/04/14 06:02:43;;;;;;;0.40;0.40;;;5.60;99.90;;;;;;4972703;28;20027;-76
2023/04/14 06:05:09;;;;;;;0.10;0.10;;;5.60;99.90;;;;;;4973527;28;20030;-76
2023/04/14 06:07:35;;;;;;;0.20;0.20;;;5.60;99.90;;;;;;4988465;28;20491;-76
2023/04/14 06:10:02;;;;;;;0.50;0.47;;;5.60;99.90;;;;;;4973869;28;20032;-76
2023/04/14 06:12:28;;;;;;;0.65;0.52;;;5.60;99.90;;;;;;4972465;28;20019;-76
2023/04/14 06:14:54;;;;;;;0.82;0.30;;;5.60;99.90;;;;;;4971967;28;20034;-76
2023/04/14 06:17:20;;;;;;;0.63;0.40;;;5.60;99.90;;;;;;4988161;28;20023;-77
2023/04/14 06:19:47;;;;;;;0.40;0.25;;;5.70;99.90;;;;;;4972341;28;20050;-76
2023/04/14 06:22:18;;;;;;;0.30;0.30;;;5.70;99.90;;;;;;4973396;28;20565;-76
2023/04/14 06:24:47;;;;;;;0.47;0.47;;;5.80;99.90;;;;;;4971669;28;20038;-76
2023/04/14 06:27:13;;;;;;;0.32;0.30;;;5.80;99.90;;;;;;4971231;28;20031;-77
2023/04/14 06:29:39;;;;;;;0.30;0.30;;;5.80;99.90;;;;;;4973227;28;20015;-76
2023/04/14 06:32:05;;;;;;;0.30;0.30;;;5.80;99.90;;;;;;4973515;28;20027;-76
2023/04/14 06:34:31;;;;;;;0.32;0.30;;;5.80;99.90;;;;;;4973250;28;20480;-76
2023/04/14 06:37:00;;;;;;;0.28;0.28;;;5.80;99.90;;;;;;4972275;28;20026;-76
2023/04/14 06:39:26;;;;;;;0.10;0.10;;;5.80;99.90;;;;;;4971881;28;20086;-76
2023/04/14 06:41:51;;;;;;;0.55;0.52;;;5.80;99.90;;;;;;4972098;28;20031;-76
2023/04/14 06:44:17;;;;;;;0.30;0.20;;;5.80;99.90;;;;;;4973253;28;20030;-76
2023/04/14 06:46:43;;;;;;;0.20;0.20;;;5.90;99.90;;;;;;4971835;28;20031;-77
2023/04/14 06:49:08;;;;;;;0.32;0.20;;;5.90;99.90;;;;;;4973289;28;20066;-77
2023/04/14 06:51:34;;;;;;;0.13;0.13;;;5.80;99.90;;;;;;4973359;28;20106;-77
2023/04/14 06:54:00;;;;;;;0.20;0.20;;;5.80;99.90;;;;;;4973444;28;20365;-76
2023/04/14 06:56:26;;;;;;;1.88;0.52;;;5.80;99.90;;;;;;4972909;28;20030;-76
2023/04/14 06:58:51;;;;;;;0.22;0.22;;;5.80;99.90;;;;;;4971405;28;20035;-75
2023/04/14 07:01:17;;;;;;;0.40;0.40;;;5.80;99.90;;;;;;4956166;28;20067;-76
2023/04/14 07:03:43;;;;;;;0.13;0.10;;;5.90;99.90;;;;;;4954048;29;20031;-76
2023/04/14 07:06:15;;;;;;;0.30;0.22;;;5.90;99.90;;;;;;4953844;28;20027;-77
2023/04/14 07:08:41;;;;;;;0.30;0.30;;;5.90;99.90;;;;;;4952447;29;20038;-77
2023/04/14 07:11:09;;;;;;;0.32;0.20;;;5.90;99.90;;;;;;4953788;28;20099;-76
2023/04/14 07:13:36;;;;;;;0.75;0.20;;;5.90;99.90;;;;;;4952498;29;20498;-76
2023/04/14 07:16:02;;;;;;;2.40;0.10;;;5.80;99.90;;;;;;4952239;29;20036;-76
2023/04/14 07:18:31;;;;;;;2.28;0.40;;;5.80;99.90;;;;;;4953575;28;20028;-77
2023/04/14 07:21:00;;;;;;;0.68;0.30;;;5.80;99.90;;;;;;4953958;29;20035;-76
2023/04/14 07:23:26;;;;;;;0.30;0.30;;;5.80;99.90;;;;;;4952645;29;20028;-77
2023/04/14 07:25:54;;;;;;;0.08;0.08;;;5.70;99.90;;;;;;4954565;28;20027;-76
2023/04/14 07:28:21;;;;;;;0.10;0.10;;;5.70;99.90;;;;;;4955436;29;20445;-76
2023/04/14 07:30:48;;;;;;;1.75;0.15;;;5.70;99.90;;;;;;4955456;29;20030;-76
2023/04/14 07:33:17;;;;;;;0.45;0.20;;;5.70;99.90;;;;;;4957607;28;20027;-76
2023/04/14 07:35:43;;;;;;;0.20;0.20;;;5.70;99.90;;;;;;4955866;29;20034;-76
2023/04/14 07:38:09;;;;;;;0.10;0.10;;;5.70;99.90;;;;;;4956234;29;20115;-76
2023/04/14 07:40:35;;;;;;;0.03;0.03;;;5.70;99.90;;;;;;4956356;29;20110;-76
2023/04/14 07:43:01;;;;;;;7.47;0.20;;;5.60;99.90;;;;;;4957308;29;20491;-76
2023/04/14 07:45:26;;;;;;;0.10;0.10;;;5.60;99.90;;;;;;4955780;29;20484;-77
2023/04/14 07:47:52;;;;;;;0.13;0.13;;;5.60;99.90;;;;;;4955594;29;20515;-76
2023/04/14 07:50:18;;;;;;;0.10;0.10;;;5.60;99.90;;;;;;4957533;29;20544;-76
2023/04/14 07:52:43;;;;;;;0.90;0.20;;;5.60;99.90;;;;;;4955032;29;20499;-76
2023/04/14 08:04:25;;;;;;;0.15;0.10;;;5.90;99.90;;;;;;5066047;22;20126;-80
2023/04/14 08:06:56;;;;;;;0.08;0.08;;;5.60;99.90;;;;;;5010937;28;20022;-81
2023/04/14 08:09:33;;;;;;;2.07;0.20;;;5.60;99.90;;;;;;5146682;22;20017;-78
2023/04/14 08:12:00;;;;;;;0.55;0.20;;;5.60;99.90;;;;;;4978929;28;20064;-78
2023/04/14 08:14:25;;;;;;;2.15;0.30;;;5.60;99.90;;;;;;4996685;28;20372;-79
2023/04/14 08:16:51;;;;;;;0.10;0.10;;;5.60;99.90;;;;;;4996907;28;20097;-80
2023/04/14 08:19:17;;;;;;;0.10;0.10;;;5.60;99.90;;;;;;4995537;28;20049;-78
2023/04/14 08:21:43;;;;;;;0.38;0.30;;;5.60;99.90;;;;;;4997508;28;20069;-79
2023/04/14 08:24:08;;;;;;;1.20;0.70;;;5.70;99.90;;;;;;4981079;28;20116;-79
2023/04/14 08:26:34;;;;;;;8.55;3.47;;;5.70;99.90;;;;;;4980750;28;20054;-80
2023/04/14 08:28:59;;;;;;;2.20;1.85;;;5.70;99.90;;;;;;4980308;28;20018;-79
2023/04/14 08:31:25;;;;;;;0.88;0.88;;;5.70;99.90;;;;;;5008001;28;20037;-80
2023/04/14 08:33:51;;;;;;;1.30;1.00;;;5.60;99.90;;;;;;4993288;28;20029;-80
2023/04/14 08:36:18;;;;;;;3.40;0.50;;;5.70;99.90;;;;;;5011702;28;20161;-80
2023/04/14 08:38:46;;;;;;;0.70;0.50;;;5.80;99.90;;;;;;4994727;28;20030;-81
2023/04/14 08:41:14;;;;;;;0.93;0.88;;;5.70;99.90;;;;;;4990893;28;20056;-80
2023/04/14 08:43:40;;;;;;;0.22;0.22;;;6.10;99.90;;;;;;4983922;28;20109;-80
2023/04/14 08:46:10;;;;;;;0.40;0.40;;;5.80;99.90;;;;;;4981922;28;20437;-80
2023/04/14 08:48:37;;;;;;;0.40;0.40;;;5.60;99.90;;;;;;4999521;28;20048;-80
2023/04/14 08:51:25;;;;;;;0.30;0.30;;;4.40;99.90;;;;;;4980516;28;20026;-80
2023/04/14 08:53:54;;;;;;;0.20;0.20;;;5.90;99.90;;;;;;4980177;28;20029;-80
2023/04/14 09:04:13;;;;;;;0.40;0.30;;;6.20;99.90;;;;;;5574184;22;19913;-80
2023/04/14 09:06:39;;;;;;;0.93;0.70;;;6.20;99.90;;;;;;4995046;28;20031;-81
2023/04/14 09:09:08;;;;;;;1.75;0.93;;;6.20;99.90;;;;;;5019539;28;20048;-80
2023/04/14 09:11:43;;;;;;;5.53;2.58;;;6.20;99.90;;;;;;4993930;28;20030;-77
2023/04/14 09:14:11;;;;;;;3.42;2.38;;;6.30;99.90;;;;;;4994183;28;20030;-77
2023/04/14 09:16:37;;;;;;;3.58;1.65;;;6.20;99.90;;;;;;4976550;28;20029;-75
2023/04/14 09:19:03;;;;;;;4.95;1.85;;;6.30;99.90;;;;;;4992480;28;20022;-76
2023/04/14 09:21:29;;;;;;;5.80;1.73;;;6.30;99.90;;;;;;4994100;28;20031;-76
2023/04/14 09:23:56;;;;;;;0.60;0.57;;;6.40;99.90;;;;;;4994229;28;20046;-76
2023/04/14 09:26:26;;;;;;;0.20;0.20;;;6.40;99.90;;;;;;4976211;28;20403;-76
2023/04/14 09:28:51;;;;;;;0.93;0.22;;;6.30;99.90;;;;;;4976181;28;20543;-76
2023/04/14 09:31:18;;;;;;;0.20;0.20;;;6.40;99.90;;;;;;4976429;28;20022;-76
2023/04/14 09:33:47;;;;;;;0.30;0.30;;;6.40;99.90;;;;;;4976949;28;20032;-76
2023/04/14 09:36:20;;;;;;;1.52;0.50;;;6.50;99.90;;;;;;4977271;28;20062;-76
2023/04/14 09:38:52;;;;;;;0.75;0.75;;;6.50;99.90;;;;;;5002395;28;20026;-77
2023/04/14 09:41:21;;;;;;;0.43;0.40;;;6.50;99.90;;;;;;4992850;28;20066;-77
2023/04/14 09:43:47;;;;;;;0.20;0.20;;;6.50;99.90;;;;;;4991914;28;20026;-76
2023/04/14 09:46:14;;;;;;;0.28;0.28;;;6.50;99.90;;;;;;4991329;28;20093;-75
2023/04/14 09:48:54;;;;;;;0.57;0.30;;;6.60;99.90;;;;;;5008728;28;20019;-75
2023/04/14 09:51:37;;;;;;;0.20;0.20;;;6.60;99.90;;;;;;4995240;28;20022;-75
2023/04/14 09:54:04;;;;;;;2.10;0.30;;;7.30;99.90;;;;;;5012703;28;20032;-75
2023/04/14 09:56:30;;;;;;;2.55;0.45;;;7.20;99.90;;;;;;5010144;28;20029;-75
2023/04/14 09:58:58;;;;;;;0.15;0.15;;;7.00;99.90;;;;;;5011368;28;20030;-75
2023/04/14 10:01:29;;;;;;;0.68;0.35;;;7.00;99.90;;;;;;4993746;28;20036;-76
2023/04/14 10:03:54;;;;;;;0.70;0.50;;;7.00;99.90;;;;;;5009543;28;20038;-75
2023/04/14 10:06:22;;;;;;;0.73;0.73;;;7.00;99.90;;;;;;5008727;28;20265;-76
2023/04/14 10:08:50;;;;;;;0.50;0.40;;;6.90;99.90;;;;;;4990462;28;20027;-75
2023/04/14 10:11:33;;;;;;;0.20;0.20;;;6.90;99.90;;;;;;5008240;28;20015;-76
2023/04/14 10:14:04;;;;;;;0.65;0.25;;;6.70;99.90;;;;;;5007926;28;20077;-76
2023/04/14 10:16:31;;;;;;;0.50;0.20;;;6.70;99.90;;;;;;4999419;28;20057;-74
2023/04/14 10:18:57;;;;;;;0.47;0.22;;;6.70;99.90;;;;;;4976219;28;20030;-76
2023/04/14 10:21:24;;;;;;;0.30;0.25;;;6.70;99.90;;;;;;4993658;28;20034;-76
2023/04/14 10:23:50;;;;;;;0.20;0.13;;;6.70;99.90;;;;;;4976693;28;20026;-75
2023/04/14 10:26:17;;;;;;;0.43;0.40;;;6.70;99.90;;;;;;4993865;28;20026;-75
2023/04/14 10:28:51;;;;;;;0.30;0.30;;;6.70;99.90;;;;;;4993029;28;20050;-75
2023/04/14 10:31:29;;;;;;;0.20;0.20;;;6.70;99.90;;;;;;4993266;28;20503;-75
2023/04/14 10:33:55;;;;;;;0.60;0.40;;;6.60;99.90;;;;;;4975788;28;20082;-75
2023/04/14 10:36:27;;;;;;;0.22;0.20;;;6.60;99.90;;;;;;4992776;28;20030;-75
2023/04/14 10:39:01;;;;;;;0.40;0.40;;;6.70;99.90;;;;;;4992781;28;20026;-75
2023/04/14 10:41:36;;;;;;;0.57;0.40;;;6.70;99.90;;;;;;4975209;28;20054;-75
2023/04/14 10:44:02;;;;;;;0.25;0.25;;;6.70;99.90;;;;;;4992906;28;20126;-75
2023/04/14 10:46:42;;;;;;;3.70;0.40;;;6.70;99.90;;;;;;4975080;28;20517;-75
2023/04/14 10:49:11;;;;;;;0.40;0.30;;;7.60;99.90;;;;;;4992313;28;20109;-74
2023/04/14 10:51:36;;;;;;;0.40;0.40;;;8.20;99.90;;;;;;4974974;28;20041;-75
2023/04/14 10:54:02;;;;;;;0.30;0.20;;;8.20;99.90;;;;;;4975240;28;20494;-75
2023/04/14 10:56:29;;;;;;;0.22;0.22;;;8.00;99.90;;;;;;4975032;28;20438;-74
2023/04/14 10:58:57;;;;;;;0.20;0.20;;;7.60;99.90;;;;;;4975089;28;20041;-74
2023/04/14 11:01:29;;;;;;;1.00;0.80;;;7.40;99.90;;;;;;4995356;28;20382;-75
2023/04/14 11:03:56;;;;;;;1.85;0.95;;;7.20;99.90;;;;;;4995412;28;20113;-75
2023/04/14 11:06:51;;;;;;;1.85;0.50;;;7.30;99.90;;;;;;4978767;28;20517;-75
2023/04/14 11:09:32;;;;;;;0.25;0.25;;;7.20;99.90;;;;;;4978738;28;20449;-74
2023/04/14 11:12:03;;;;;;;0.30;0.30;;;7.20;99.90;;;;;;4979178;28;20025;-74
2023/04/14 11:14:34;;;;;;;0.60;0.30;;;7.00;99.90;;;;;;4996335;28;20044;-75
2023/04/14 11:17:02;;;;;;;0.20;0.20;;;7.00;99.90;;;;;;4978990;28;20561;-75
2023/04/14 11:19:28;;;;;;;2.13;0.80;;;7.00;99.90;;;;;;4978629;28;20031;-75
2023/04/14 11:21:54;;;;;;;2.80;1.02;;;7.00;99.90;;;;;;4978885;28;20558;-75
2023/04/14 11:24:24;;;;;;;0.57;0.40;;;6.80;99.90;;;;;;4996576;28;20058;-74
2023/04/14 11:26:56;;;;;;;0.85;0.40;;;6.80;99.90;;;;;;4977787;28;20030;-74
2023/04/14 11:29:22;;;;;;;1.08;0.55;;;6.90;99.90;;;;;;4978194;28;20081;-75
2023/04/14 11:32:04;;;;;;;1.55;0.10;;;6.90;99.90;;;;;;4978668;28;20023;-75
2023/04/14 11:34:30;;;;;;;0.28;0.28;;;6.90;99.90;;;;;;4996458;28;20058;-74
2023/04/14 11:36:56;;;;;;;0.88;0.60;;;6.90;99.90;;;;;;4995831;28;20031;-75
2023/04/14 11:39:22;;;;;;;0.43;0.35;;;7.00;99.90;;;;;;4995342;28;20033;-75
2023/04/14 11:41:49;;;;;;;0.50;0.30;;;7.00;99.90;;;;;;4976692;28;20026;-74
2023/04/14 11:44:19;;;;;;;0.30;0.20;;;7.00;99.90;;;;;;4996110;28;20027;-75
2023/04/14 11:46:45;;;;;;;0.57;0.30;;;7.00;99.90;;;;;;4995510;28;20054;-75
2023/04/14 11:49:10;;;;;;;0.30;0.30;;;7.10;99.90;;;;;;4995525;28;20026;-75
2023/04/14 11:51:37;;;;;;;0.10;0.10;;;7.10;99.90;;;;;;4978615;28;20030;-75
2023/04/14 11:54:03;;;;;;;0.20;0.20;;;7.10;99.90;;;;;;4995655;28;20051;-75
2023/04/14 11:56:30;;;;;;;0.10;0.10;;;7.20;99.90;;;;;;4977895;28;20033;-75
2023/04/14 11:59:04;;;;;;;0.20;0.20;;;7.10;99.90;;;;;;4995352;28;20023;-75
2023/04/14 12:01:30;;;;;;;0.17;0.17;;;7.20;99.90;;;;;;4996131;28;20164;-75
2023/04/14 12:03:56;;;;;;;0.15;0.15;;;7.30;99.90;;;;;;4978079;28;20061;-74
2023/04/14 12:06:23;;;;;;;1.27;0.45;;;7.20;99.90;;;;;;4977542;28;20398;-74
2023/04/14 12:09:02;;;;;;;0.10;0.10;;;7.30;99.90;;;;;;4995222;28;20101;-74
2023/04/14 12:11:28;;;;;;;0.10;0.10;;;7.30;99.90;;;;;;4977472;28;20486;-74
2023/04/14 12:13:54;;;;;;;0.00;0.00;;;7.30;99.90;;;;;;4996241;28;20041;-74
2023/04/14 12:16:19;;;;;;;0.63;0.38;;;7.40;99.90;;;;;;4977703;28;20030;-74
2023/04/14 12:18:45;;;;;;;0.50;0.38;;;7.40;99.90;;;;;;4977836;28;20034;-75
2023/04/14 12:21:16;;;;;;;0.40;0.30;;;7.40;99.90;;;;;;4978178;28;20033;-75
2023/04/14 12:23:47;;;;;;;0.25;0.20;;;7.50;99.90;;;;;;4977408;28;20061;-75
2023/04/14 12:26:13;;;;;;;0.28;0.17;;;7.50;99.90;;;;;;4994740;28;20018;-75
2023/04/14 12:28:40;;;;;;;0.38;0.17;;;7.50;99.90;;;;;;4994851;28;20014;-75
2023/04/14 12:31:07;;;;;;;2.05;0.30;;;7.60;99.90;;;;;;4977935;28;20027;-75
2023/04/14 12:33:33;;;;;;;2.40;0.15;;;7.60;99.90;;;;;;4976762;28;20073;-75
2023/04/14 12:36:04;;;;;;;0.40;0.10;;;7.60;99.90;;;;;;4993888;28;20113;-75
2023/04/14 12:38:31;;;;;;;0.10;0.10;;;7.60;99.90;;;;;;4976820;28;20026;-75
2023/04/14 12:40:57;;;;;;;0.15;0.10;;;7.60;99.90;;;;;;4994815;28;20026;-75
2023/04/14 12:43:36;;;;;;;0.10;0.10;;;7.70;99.90;;;;;;4994114;28;20023;-75
2023/04/14 12:46:04;;;;;;;0.00;0.00;;;7.70;99.90;;;;;;4994317;28;20092;-74
2023/04/14 12:48:47;;;;;;;0.10;0.10;;;7.70;99.90;;;;;;4994551;28;20018;-75
2023/04/14 12:51:19;;;;;;;0.03;0.03;;;7.90;99.90;;;;;;4995023;28;20019;-75
2023/04/14 12:53:48;;;;;;;0.75;0.10;;;7.80;99.90;;;;;;4977314;28;20402;-74
2023/04/14 12:56:18;;;;;;;0.00;0.00;;;7.90;99.90;;;;;;4993268;28;20034;-74
2023/04/14 12:58:45;;;;;;;0.05;0.05;;;7.80;99.90;;;;;;4994332;28;20031;-74
2023/04/14 13:01:12;;;;;;;0.85;0.32;;;7.80;99.90;;;;;;4977036;28;20380;-74
2023/04/14 13:03:38;;;;;;;0.10;0.10;;;7.80;99.90;;;;;;4994288;28;20108;-75
2023/04/14 13:06:04;;;;;;;0.30;0.17;;;7.90;99.90;;;;;;4976858;28;20625;-74
2023/04/14 13:08:30;;;;;;;0.13;0.10;;;7.90;99.90;;;;;;4976828;28;20109;-75
2023/04/14 13:10:56;;;;;;;2.28;0.20;;;8.00;99.90;;;;;;4994144;28;20100;-75
2023/04/14 13:13:22;;;;;;;0.43;0.43;;;7.90;99.90;;;;;;4976960;28;20033;-74
2023/04/14 13:15:48;;;;;;;0.22;0.20;;;8.00;99.90;;;;;;4993400;28;20026;-75
2023/04/14 13:18:15;;;;;;;1.10;0.88;;;8.10;99.90;;;;;;4976889;28;20030;-74
2023/04/14 13:20:41;;;;;;;0.60;0.60;;;8.10;99.90;;;;;;4976796;28;20027;-74